createdAt,value
2023-03-10T00:01:44.995Z,99901.88
2023-03-10T00:04:56.643Z,99910.47
2023-03-10T00:08:00.034Z,99898.78
2023-03-10T00:11:02.253Z,99903.81
2023-03-10T00:14:04.264Z,99902.34
2023-03-10T00:17:06.867Z,99904.28
2023-03-10T00:20:12.185Z,99902.63
2023-03-10T00:23:14.143Z,99898.91
2023-03-10T00:26:17.791Z,99916.22
2023-03-10T00:29:19.946Z,99914.59
2023-03-10T00:32:22.109Z,99903.72
2023-03-10T00:35:24.096Z,99924.53
2023-03-10T00:38:26.035Z,99923.13
2023-03-10T00:41:33.607Z,99920.59
2023-03-10T00:44:35.863Z,99905.63
2023-03-10T00:47:37.951Z,99907.72
2023-03-10T00:50:39.873Z,99912.47
2023-03-10T00:53:42.986Z,99903.38
2023-03-10T00:56:45.043Z,99915.28
2023-03-10T00:59:51.207Z,99922.53
2023-03-10T01:02:53.209Z,99927.38
2023-03-10T01:05:56.373Z,99920.34
2023-03-10T01:08:58.941Z,99925.41
2023-03-10T01:12:01.176Z,99926.00
2023-03-10T01:15:03.916Z,99929.38
2023-03-10T01:18:06.848Z,99936.44
2023-03-10T01:21:20.241Z,99952.06
2023-03-10T01:24:22.354Z,99958.31
2023-03-10T01:27:24.370Z,99950.63
2023-03-10T01:30:26.531Z,99952.28
2023-03-10T01:33:28.615Z,99951.22
2023-03-10T01:36:30.795Z,99935.03
2023-03-10T01:39:32.867Z,99942.09
2023-03-10T01:42:35.227Z,99941.91
2023-03-10T01:45:37.224Z,99953.97
2023-03-10T01:48:39.305Z,99966.88
2023-03-10T01:51:44.406Z,99952.91
2023-03-10T01:55:02.547Z,99967.72
2023-03-10T01:58:05.839Z,99955.03
2023-03-10T02:01:11.836Z,99954.81
2023-03-10T02:04:25.099Z,99962.91
2023-03-10T02:07:29.874Z,99968.75
2023-03-10T02:10:33.101Z,99973.13
2023-03-10T02:13:35.165Z,99972.91
2023-03-10T02:16:37.250Z,99976.22
2023-03-10T02:20:00.789Z,99971.44
2023-03-10T02:23:04.648Z,99976.03
2023-03-10T02:26:27.899Z,99975.19
2023-03-10T02:29:58.406Z,99974.94
2023-03-10T02:33:06.978Z,99975.38
2023-03-10T02:36:18.828Z,99981.63
2023-03-10T02:39:21.222Z,99981.19
2023-03-10T02:42:27.318Z,99982.22
2023-03-10T02:45:33.157Z,99982.19
2023-03-10T02:48:38.329Z,99986.34
2023-03-10T02:51:46.759Z,100002.19
2023-03-10T02:54:51.249Z,99999.94
2023-03-10T02:57:53.308Z,100011.16
2023-03-10T03:00:55.960Z,100013.44
2023-03-10T03:03:58.326Z,100007.19
2023-03-10T03:07:01.431Z,100015.84
2023-03-10T03:10:04.943Z,100034.97
2023-03-10T03:13:07.629Z,100037.59
2023-03-10T03:16:11.334Z,100047.09
2023-03-10T03:19:14.872Z,100044.84
2023-03-10T03:22:17.363Z,100050.63
2023-03-10T03:25:21.052Z,100052.00
2023-03-10T03:28:23.644Z,100057.91
2023-03-10T03:31:27.738Z,100052.19
2023-03-10T03:34:39.396Z,100054.75
2023-03-10T03:37:43.631Z,100048.25
2023-03-10T03:40:46.336Z,100046.59
2023-03-10T03:43:51.257Z,100041.63
2023-03-10T03:46:54.704Z,100050.41
2023-03-10T03:49:58.079Z,100042.38
2023-03-10T03:53:00.317Z,100039.28
2023-03-10T03:56:05.174Z,100041.56
2023-03-10T03:59:10.205Z,100045.72
2023-03-10T04:02:13.236Z,100052.13
2023-03-10T04:05:16.418Z,100053.16
2023-03-10T04:08:18.483Z,100051.88
2023-03-10T04:11:20.887Z,100043.63
2023-03-10T04:14:24.893Z,100041.75
2023-03-10T04:17:27.413Z,100044.47
2023-03-10T04:20:29.844Z,100052.34
2023-03-10T04:23:32.221Z,100055.84
2023-03-10T04:26:34.520Z,100050.28
2023-03-10T04:29:38.610Z,100048.66
2023-03-10T04:32:41.246Z,100058.06
2023-03-10T04:35:47.650Z,100050.81
2023-03-10T04:38:52.000Z,100055.88
2023-03-10T04:41:56.037Z,100062.00
2023-03-10T04:44:58.154Z,100062.59
2023-03-10T04:48:00.647Z,100073.09
2023-03-10T04:51:07.198Z,100075.63
2023-03-10T04:54:14.569Z,100066.06
2023-03-10T04:57:17.396Z,100079.31
2023-03-10T05:00:20.248Z,100095.78
2023-03-10T05:03:23.764Z,100092.50
2023-03-10T05:06:26.570Z,100099.38
2023-03-10T05:09:39.448Z,100094.97
2023-03-10T05:12:42.501Z,100102.25
2023-03-10T05:15:45.496Z,100111.78
2023-03-10T05:18:48.010Z,100113.06
2023-03-10T05:21:53.889Z,100113.72
2023-03-10T05:24:56.646Z,100119.28
2023-03-10T05:27:58.816Z,100124.47
2023-03-10T05:31:01.900Z,100110.56
2023-03-10T05:34:05.150Z,100129.59
2023-03-10T05:37:07.827Z,100127.91
2023-03-10T05:40:14.480Z,100125.13
2023-03-10T05:43:17.830Z,100128.47
2023-03-10T05:46:20.663Z,100135.06
2023-03-10T05:49:28.269Z,100130.69
2023-03-10T05:52:30.762Z,100115.53
2023-03-10T05:55:33.609Z,100117.88
2023-03-10T05:58:36.306Z,100116.88
2023-03-10T06:01:38.705Z,100115.00
2023-03-10T06:04:40.717Z,100115.81
2023-03-10T06:07:43.310Z,100108.97
2023-03-10T06:10:45.561Z,100122.91
2023-03-10T06:13:47.558Z,100121.44
2023-03-10T06:16:51.762Z,100116.00
2023-03-10T06:19:53.941Z,100118.22
2023-03-10T06:22:55.955Z,100128.06
2023-03-10T06:26:02.262Z,100129.47
2023-03-10T06:29:04.385Z,100126.00
2023-03-10T06:32:06.636Z,100124.34
2023-03-10T06:35:12.361Z,100129.94
2023-03-10T06:38:14.477Z,100127.13
2023-03-10T06:41:16.963Z,100111.66
2023-03-10T06:44:19.043Z,100100.19
2023-03-10T06:47:21.169Z,100109.97
2023-03-10T06:50:23.144Z,100107.47
2023-03-10T06:53:25.210Z,100102.47
2023-03-10T06:56:27.367Z,100113.34
2023-03-10T06:59:31.989Z,100115.84
2023-03-10T07:02:34.049Z,100130.91
2023-03-10T07:05:36.060Z,100124.22
2023-03-10T07:08:38.172Z,100117.66
2023-03-10T07:11:40.284Z,100112.59
2023-03-10T07:14:42.326Z,100121.44
2023-03-10T07:17:44.803Z,100124.41
2023-03-10T07:20:48.532Z,100123.44
2023-03-10T07:23:50.836Z,100113.53
2023-03-10T07:26:53.102Z,100133.91
2023-03-10T07:29:56.385Z,100122.19
2023-03-10T07:32:58.682Z,100116.81
2023-03-10T07:36:05.764Z,100130.94
2023-03-10T07:39:08.148Z,100133.84
2023-03-10T07:42:10.364Z,100136.75
2023-03-10T07:45:12.662Z,100139.09
2023-03-10T07:48:15.690Z,100132.44
2023-03-10T07:51:17.675Z,100134.03
2023-03-10T07:54:19.802Z,100136.56
2023-03-10T07:57:21.835Z,100137.44
2023-03-10T08:00:24.092Z,100137.19
2023-03-10T08:03:28.083Z,100124.28
2023-03-10T08:06:32.851Z,100119.47
2023-03-10T08:09:35.584Z,100092.53
2023-03-10T08:12:38.175Z,100110.56
2023-03-10T08:15:40.897Z,100106.78
2023-03-10T08:18:44.295Z,100111.31
2023-03-10T08:21:46.460Z,100100.72
2023-03-10T08:24:48.561Z,100094.06
2023-03-10T08:27:50.617Z,100089.09
2023-03-10T08:31:04.160Z,100080.97
2023-03-10T08:34:07.471Z,100075.72
2023-03-10T08:37:12.688Z,100089.31
2023-03-10T08:40:16.320Z,100079.94
2023-03-10T08:43:18.978Z,100070.88
2023-03-10T08:46:22.343Z,100086.47
2023-03-10T08:49:24.434Z,100082.28
2023-03-10T08:52:26.425Z,100085.38
2023-03-10T08:55:28.508Z,100085.16
2023-03-10T08:58:30.863Z,100090.72
2023-03-10T09:01:35.402Z,100096.66
2023-03-10T09:04:37.588Z,100081.53
2023-03-10T09:07:39.626Z,100090.78
2023-03-10T09:10:43.639Z,100074.44
2023-03-10T09:13:46.190Z,100066.75
2023-03-10T09:16:48.362Z,100074.22
2023-03-10T09:19:50.526Z,100073.41
2023-03-10T09:22:53.488Z,100070.69
2023-03-10T09:25:55.525Z,100046.59
2023-03-10T09:28:57.567Z,100057.63
2023-03-10T09:31:59.664Z,100059.00
2023-03-10T09:35:01.860Z,100049.84
2023-03-10T09:38:04.121Z,100053.50
2023-03-10T09:41:37.003Z,100044.66
2023-03-10T09:45:03.222Z,100030.34
2023-03-10T09:48:26.534Z,100032.03
2023-03-10T09:51:29.018Z,100002.63
2023-03-10T09:54:42.281Z,100006.56
2023-03-10T09:57:56.155Z,99996.22
2023-03-10T10:00:59.738Z,99998.31
2023-03-10T10:04:28.202Z,99976.94
2023-03-10T10:07:49.432Z,99972.38
2023-03-10T10:10:55.436Z,99986.94
2023-03-10T10:14:29.313Z,99974.09
2023-03-10T10:18:08.373Z,99959.38
2023-03-10T10:21:17.212Z,99947.78
2023-03-10T10:24:20.581Z,99956.91
2023-03-10T10:27:25.101Z,99954.25
2023-03-10T10:30:27.720Z,99955.66
2023-03-10T10:33:49.951Z,99958.28
2023-03-10T10:36:57.549Z,99945.31
2023-03-10T10:40:00.588Z,99946.88
2023-03-10T10:43:06.091Z,99944.22
2023-03-10T10:46:10.502Z,99930.31
2023-03-10T10:49:29.555Z,99931.56
2023-03-10T10:52:33.604Z,99922.09
2023-03-10T10:55:35.732Z,99911.78
2023-03-10T10:58:39.808Z,99897.88
2023-03-10T11:01:54.658Z,99900.84
2023-03-10T11:05:17.491Z,99895.38
2023-03-10T11:08:28.212Z,99890.75
2023-03-10T11:11:37.940Z,99893.13
2023-03-10T11:15:16.705Z,99884.25
2023-03-10T11:18:31.718Z,99881.78
2023-03-10T11:21:39.026Z,99889.72
2023-03-10T11:24:54.875Z,99874.25
2023-03-10T11:27:59.890Z,99887.91
2023-03-10T11:31:43.238Z,99873.09
2023-03-10T11:34:50.885Z,99869.69
2023-03-10T11:38:11.905Z,99860.91
2023-03-10T11:41:19.409Z,99859.44
2023-03-10T11:44:26.235Z,99853.38
2023-03-10T11:47:46.591Z,99847.44
2023-03-10T11:50:55.340Z,99842.47
2023-03-10T11:54:01.327Z,99812.44
2023-03-10T11:57:25.857Z,99830.47
2023-03-10T12:00:36.124Z,99820.44
2023-03-10T12:03:57.992Z,99802.91
2023-03-10T12:07:15.783Z,99805.81
2023-03-10T12:10:22.254Z,99799.47
2023-03-10T12:13:27.775Z,99791.44
2023-03-10T12:16:36.330Z,99784.72
2023-03-10T12:20:08.214Z,99784.41
2023-03-10T12:23:10.228Z,99782.59
2023-03-10T12:26:13.122Z,99774.13
2023-03-10T12:29:21.446Z,99768.63
2023-03-10T12:32:38.983Z,99762.56
2023-03-10T12:35:48.269Z,99770.84
2023-03-10T12:38:55.327Z,99760.16
2023-03-10T12:41:58.834Z,99763.81
2023-03-10T12:45:06.499Z,99756.00
2023-03-10T12:48:20.117Z,99750.81
2023-03-10T12:51:25.811Z,99751.78
2023-03-10T12:54:34.000Z,99732.19
2023-03-10T12:57:44.902Z,99730.81
2023-03-10T13:00:51.186Z,99734.81
2023-03-10T13:03:55.634Z,99732.84
2023-03-10T13:07:03.921Z,99732.03
2023-03-10T13:10:11.259Z,99703.25
2023-03-10T13:13:17.794Z,99699.59
2023-03-10T13:16:21.286Z,99699.31
2023-03-10T13:19:25.874Z,99706.44
2023-03-10T13:22:30.803Z,99699.66
2023-03-10T13:25:37.249Z,99687.97
2023-03-10T13:28:39.530Z,99698.16
2023-03-10T13:31:41.778Z,99700.28
2023-03-10T13:34:47.806Z,99691.53
2023-03-10T13:38:19.805Z,99700.06
2023-03-10T13:41:23.362Z,99689.69
2023-03-10T13:44:29.866Z,99683.16
2023-03-10T13:47:32.190Z,99679.66
2023-03-10T13:50:35.470Z,99687.34
2023-03-10T13:53:38.917Z,99678.84
2023-03-10T13:56:43.639Z,99687.53
2023-03-10T13:59:48.102Z,99675.66
2023-03-10T14:02:53.162Z,99686.16
2023-03-10T14:05:55.298Z,99685.53
2023-03-10T14:09:11.678Z,99690.94
2023-03-10T14:12:14.712Z,99684.31
2023-03-10T14:15:19.553Z,99685.16
2023-03-10T14:18:21.639Z,99688.97
2023-03-10T14:21:32.523Z,99679.44
2023-03-10T14:24:34.520Z,99674.38
2023-03-10T14:27:41.078Z,99670.59
2023-03-10T14:30:44.447Z,99669.81
2023-03-10T14:33:47.675Z,99669.13
2023-03-10T14:36:49.763Z,99673.78
2023-03-10T14:39:52.005Z,99669.97
2023-03-10T14:42:58.070Z,99673.47
2023-03-10T14:46:03.034Z,99672.97
2023-03-10T14:49:11.315Z,99674.44
2023-03-10T14:52:18.120Z,99659.53
2023-03-10T14:55:20.119Z,99654.75
2023-03-10T14:58:28.341Z,99663.16
2023-03-10T15:01:31.141Z,99641.94
2023-03-10T15:04:33.336Z,99643.88
2023-03-10T15:07:39.391Z,99640.03
2023-03-10T15:10:44.127Z,99637.56
2023-03-10T15:13:46.072Z,99644.66
2023-03-10T15:16:48.208Z,99638.16
2023-03-10T15:19:53.474Z,99642.47
2023-03-10T15:22:55.714Z,99649.53
2023-03-10T15:25:59.134Z,99640.78
2023-03-10T15:29:01.215Z,99646.88
2023-03-10T15:32:04.167Z,99646.56
2023-03-10T15:35:06.441Z,99635.53
2023-03-10T15:38:19.301Z,99650.00
2023-03-10T15:41:21.820Z,99645.56
2023-03-10T15:44:23.951Z,99626.13
2023-03-10T15:47:26.073Z,99636.03
2023-03-10T15:50:28.148Z,99631.28
2023-03-10T15:53:30.334Z,99625.97
2023-03-10T15:56:32.378Z,99639.03
2023-03-10T15:59:35.779Z,99630.56
2023-03-10T16:02:37.765Z,99623.34
2023-03-10T16:05:48.292Z,99622.13
2023-03-10T16:08:50.235Z,99630.31
2023-03-10T16:11:52.225Z,99614.94
2023-03-10T16:14:55.509Z,99608.09
2023-03-10T16:17:58.180Z,99608.84
2023-03-10T16:21:03.729Z,99606.88
2023-03-10T16:24:07.159Z,99609.44
2023-03-10T16:27:10.992Z,99599.66
2023-03-10T16:30:19.366Z,99601.22
2023-03-10T16:33:26.662Z,99579.41
2023-03-10T16:36:30.055Z,99585.94
2023-03-10T16:39:33.345Z,99585.97
2023-03-10T16:42:38.974Z,99585.88
2023-03-10T16:45:41.097Z,99591.66
2023-03-10T16:48:50.992Z,99590.09
2023-03-10T16:51:53.067Z,99588.41
2023-03-10T16:55:00.865Z,99586.69
2023-03-10T16:58:09.343Z,99597.94
2023-03-10T17:01:11.752Z,99586.91
2023-03-10T17:04:14.338Z,99573.16
2023-03-10T17:07:16.644Z,99593.09
2023-03-10T17:10:18.885Z,99579.38
2023-03-10T17:13:21.308Z,99577.56
2023-03-10T17:16:28.505Z,99560.97
2023-03-10T17:19:31.008Z,99582.38
2023-03-10T17:22:33.428Z,99567.41
2023-03-10T17:25:39.806Z,99559.13
2023-03-10T17:28:46.442Z,99562.00
2023-03-10T17:31:59.098Z,99561.38
2023-03-10T17:35:03.612Z,99550.13
2023-03-10T17:38:06.384Z,99554.50
2023-03-10T17:41:15.057Z,99563.13
2023-03-10T17:44:17.727Z,99547.84
2023-03-10T17:47:19.844Z,99555.41
2023-03-10T17:50:32.378Z,99545.97
2023-03-10T17:53:42.963Z,99544.00
2023-03-10T17:57:44.964Z,99548.56
2023-03-10T18:00:48.413Z,99541.47
2023-03-10T18:03:50.778Z,99542.81
2023-03-10T18:06:55.068Z,99518.44
2023-03-10T18:09:59.024Z,99538.34
2023-03-10T18:13:02.471Z,99533.53
2023-03-10T18:16:07.749Z,99519.38
2023-03-10T18:19:11.290Z,99532.22
2023-03-10T18:22:13.804Z,99524.28
2023-03-10T18:25:16.720Z,99522.31
2023-03-10T18:28:40.009Z,99500.94
2023-03-10T18:31:45.599Z,99509.84
2023-03-10T18:34:47.657Z,99513.75
2023-03-10T18:37:52.353Z,99507.66
2023-03-10T18:40:59.880Z,99517.00
2023-03-10T18:44:02.216Z,99507.44
2023-03-10T18:47:08.700Z,99508.06
2023-03-10T18:50:12.232Z,99518.88
2023-03-10T18:53:14.511Z,99507.41
2023-03-10T18:56:18.297Z,99506.25
2023-03-10T18:59:20.405Z,99507.06
2023-03-10T19:02:23.940Z,99526.78
2023-03-10T19:05:27.156Z,99513.63
2023-03-10T19:08:29.190Z,99509.91
2023-03-10T19:11:37.253Z,99512.34
2023-03-10T19:14:41.054Z,99503.44
2023-03-10T19:17:43.803Z,99502.69
2023-03-10T19:20:53.901Z,99499.91
2023-03-10T19:23:56.140Z,99495.94
2023-03-10T19:26:58.193Z,99498.16
2023-03-10T19:30:00.426Z,99496.44
2023-03-10T19:33:04.790Z,99484.63
2023-03-10T19:36:13.330Z,99489.31
2023-03-10T19:39:15.653Z,99485.16
2023-03-10T19:42:17.791Z,99476.25
2023-03-10T19:45:20.120Z,99482.44
2023-03-10T19:48:22.121Z,99465.84
2023-03-10T19:51:27.868Z,99473.47
2023-03-10T19:54:30.062Z,99463.28
2023-03-10T19:57:33.935Z,99458.19
2023-03-10T20:00:36.600Z,99454.94
2023-03-10T20:03:38.836Z,99444.19
2023-03-10T20:06:43.712Z,99456.03
2023-03-10T20:09:46.180Z,99451.88
2023-03-10T20:12:51.644Z,99435.63
2023-03-10T20:15:53.800Z,99446.75
2023-03-10T20:18:56.250Z,99438.47
2023-03-10T20:21:58.508Z,99444.16
2023-03-10T20:25:02.287Z,99444.84
2023-03-10T20:28:04.554Z,99436.59
2023-03-10T20:31:06.541Z,99433.53
2023-03-10T20:34:17.624Z,99418.19
2023-03-10T20:37:19.564Z,99427.84
2023-03-10T20:40:24.340Z,99423.22
2023-03-10T20:43:27.125Z,99430.78
2023-03-10T20:46:29.225Z,99424.31
2023-03-10T20:49:31.595Z,99421.06
2023-03-10T20:52:35.738Z,99422.75
2023-03-10T20:55:38.119Z,99417.09
2023-03-10T20:58:40.641Z,99417.97
2023-03-10T21:01:42.962Z,99426.00
2023-03-10T21:04:45.328Z,99412.09
2023-03-10T21:07:47.727Z,99411.81
2023-03-10T21:10:49.854Z,99401.69
2023-03-10T21:13:52.075Z,99396.84
2023-03-10T21:16:55.393Z,99390.69
2023-03-10T21:19:57.622Z,99397.91
2023-03-10T21:22:59.840Z,99382.28
2023-03-10T21:26:01.862Z,99378.88
2023-03-10T21:29:04.912Z,99371.91
2023-03-10T21:32:08.310Z,99370.34
2023-03-10T21:35:13.912Z,99365.13
2023-03-10T21:38:15.922Z,99349.16
2023-03-10T21:41:20.784Z,99348.19
2023-03-10T21:44:24.296Z,99352.16
2023-03-10T21:47:26.385Z,99336.13
2023-03-10T21:50:28.445Z,99325.75
2023-03-10T21:53:30.783Z,99330.69
2023-03-10T21:56:32.945Z,99324.09
2023-03-10T21:59:35.173Z,99311.19
2023-03-10T22:02:37.615Z,99318.03
2023-03-10T22:05:39.940Z,99299.16
2023-03-10T22:08:42.627Z,99300.97
2023-03-10T22:11:44.662Z,99307.56
2023-03-10T22:14:47.662Z,99295.19
2023-03-10T22:17:50.526Z,99292.63
2023-03-10T22:20:52.677Z,99294.13
2023-03-10T22:23:57.302Z,99289.09
2023-03-10T22:26:59.397Z,99307.97
2023-03-10T22:30:01.612Z,99293.47
2023-03-10T22:33:03.958Z,99276.47
2023-03-10T22:36:08.616Z,99293.38
2023-03-10T22:39:10.705Z,99289.84
2023-03-10T22:42:13.620Z,99275.75
2023-03-10T22:45:20.767Z,99273.75
2023-03-10T22:48:23.033Z,99269.41
2023-03-10T22:51:25.352Z,99273.19
2023-03-10T22:54:28.560Z,99266.22
2023-03-10T22:57:30.874Z,99267.50
2023-03-10T23:00:33.968Z,99276.81
2023-03-10T23:03:37.566Z,99274.13
2023-03-10T23:06:39.727Z,99275.41
2023-03-10T23:09:41.747Z,99266.69
2023-03-10T23:12:44.510Z,99277.31
2023-03-10T23:15:47.719Z,99287.94
2023-03-10T23:18:50.417Z,99280.88
2023-03-10T23:21:52.511Z,99271.56
2023-03-10T23:24:54.501Z,99277.13
2023-03-10T23:27:57.435Z,99290.22
2023-03-10T23:31:00.555Z,99276.91
2023-03-10T23:34:02.611Z,99259.69
2023-03-10T23:37:04.877Z,99265.84
2023-03-10T23:40:11.694Z,99256.06
2023-03-10T23:43:13.767Z,99229.06
2023-03-10T23:46:16.013Z,99234.56
2023-03-10T23:49:18.110Z,99218.28
2023-03-10T23:52:20.282Z,99223.50
2023-03-10T23:55:26.791Z,99215.59
2023-03-10T23:58:29.060Z,99211.69
